Time;durP1;ratioP1;P1;durP2;ratioP2;P2;SDS_P1;SDS_P2;PMS_P1;PMS_P2;Temp;Humidity;BMP_temperature;BMP_pressure;BME280_temperature;BME280_humidity;BME280_pressure;Samples;Min_cycle;Max_cycle;Signal;HPM_P1;HPM_P2
2022/06/28 00:01:58;;;;;;;1.50;1.00;;;15.10;98.20;;;;;;4989517;28;20476;-81
2022/06/28 00:04:25;;;;;;;1.50;1.00;;;15.00;98.20;;;;;;4999272;28;20549;-81
2022/06/28 00:06:52;;;;;;;1.50;1.00;;;15.00;98.20;;;;;;4986517;28;20493;-81
2022/06/28 00:09:19;;;;;;;1.50;1.00;;;15.00;98.20;;;;;;4992213;28;20492;-81
2022/06/28 00:11:46;;;;;;;1.50;1.00;;;15.00;98.20;;;;;;4994924;28;20462;-81
2022/06/28 00:17:00;;;;;;;1.50;0.93;;;15.00;98.20;;;;;;4990563;28;20506;-81
2022/06/28 00:19:27;;;;;;;1.50;1.00;;;15.00;98.20;;;;;;4995387;28;20544;-80
2022/06/28 00:21:54;;;;;;;1.50;1.00;;;15.00;98.20;;;;;;4995269;28;20477;-80
2022/06/28 00:24:22;;;;;;;1.50;1.00;;;15.00;98.20;;;;;;4996451;28;21163;-80
2022/06/28 00:26:49;;;;;;;1.50;1.03;;;15.00;98.20;;;;;;4993912;28;20498;-81
2022/06/28 00:29:18;;;;;;;1.50;1.00;;;14.90;98.20;;;;;;5004899;28;20544;-80
2022/06/28 00:31:45;;;;;;;1.50;1.00;;;14.90;98.20;;;;;;4997296;28;20465;-81
2022/06/28 00:34:12;;;;;;;1.50;1.00;;;14.90;98.20;;;;;;4997877;28;20592;-81
2022/06/28 00:36:39;;;;;;;1.50;1.00;;;14.90;98.20;;;;;;4993418;28;20466;-81
2022/06/28 00:39:06;;;;;;;1.53;1.00;;;14.90;98.20;;;;;;4991451;28;20500;-79
2022/06/28 00:41:35;;;;;;;1.50;1.00;;;14.90;98.20;;;;;;4990535;28;20953;-79
2022/06/28 00:44:03;;;;;;;1.50;1.00;;;14.90;98.20;;;;;;4999349;28;20469;-78
2022/06/28 00:46:33;;;;;;;1.50;1.00;;;14.90;98.20;;;;;;4995466;28;20854;-78
2022/06/28 00:49:01;;;;;;;1.50;1.00;;;14.90;98.20;;;;;;4999274;28;20485;-78
2022/06/28 00:51:28;;;;;;;1.50;0.97;;;14.90;98.20;;;;;;4990125;28;20496;-78
2022/06/28 00:53:55;;;;;;;1.50;1.00;;;14.90;98.20;;;;;;5011335;28;20465;-77
2022/06/28 00:56:22;;;;;;;1.50;1.00;;;14.80;98.20;;;;;;4996235;28;20462;-78
2022/06/28 00:58:52;;;;;;;1.50;1.10;;;14.80;98.20;;;;;;4997528;28;20489;-80
2022/06/28 01:01:19;;;;;;;1.50;1.00;;;14.80;98.20;;;;;;4987752;28;20488;-80
2022/06/28 01:03:47;;;;;;;1.50;1.00;;;14.80;98.20;;;;;;4989391;28;20489;-81
2022/06/28 01:06:14;;;;;;;1.50;1.00;;;14.80;98.20;;;;;;4995631;28;20462;-80
2022/06/28 01:08:41;;;;;;;1.50;1.00;;;14.80;98.20;;;;;;4996440;28;20484;-80
2022/06/28 01:11:19;;;;;;;1.50;1.00;;;14.80;98.20;;;;;;4993223;28;20548;-80
2022/06/28 01:13:47;;;;;;;1.50;1.00;;;14.80;98.20;;;;;;4996492;28;20464;-80
2022/06/28 01:16:15;;;;;;;1.50;0.90;;;14.80;98.20;;;;;;4988156;28;20577;-80
2022/06/28 01:18:41;;;;;;;1.50;1.00;;;14.70;98.20;;;;;;4998295;28;20485;-80
2022/06/28 01:21:12;;;;;;;1.50;1.10;;;14.70;98.20;;;;;;4996335;28;20476;-80
2022/06/28 01:23:41;;;;;;;1.50;1.00;;;14.70;98.20;;;;;;4994898;28;20481;-80
2022/06/28 01:26:08;;;;;;;1.53;1.00;;;14.70;98.20;;;;;;4993077;28;20468;-80
2022/06/28 01:28:36;;;;;;;1.50;1.00;;;14.70;98.20;;;;;;4991419;28;20495;-80
2022/06/28 01:31:03;;;;;;;1.50;1.00;;;14.70;98.20;;;;;;4986656;28;20472;-80
2022/06/28 01:33:29;;;;;;;1.50;1.00;;;14.70;98.20;;;;;;5007781;28;20469;-80
2022/06/28 01:35:57;;;;;;;1.50;1.07;;;14.70;98.20;;;;;;4993328;28;20552;-80
2022/06/28 01:38:24;;;;;;;1.50;1.00;;;14.70;98.20;;;;;;4995315;28;20528;-79
2022/06/28 01:40:52;;;;;;;1.50;1.00;;;14.70;98.20;;;;;;4982240;28;20954;-80
2022/06/28 01:43:21;;;;;;;1.50;1.00;;;14.70;98.20;;;;;;5004371;28;20535;-79
2022/06/28 01:45:50;;;;;;;1.50;0.90;;;14.70;98.20;;;;;;4995703;28;20496;-79
2022/06/28 01:48:18;;;;;;;1.50;1.00;;;14.70;98.20;;;;;;4992859;28;20552;-79
2022/06/28 01:53:33;;;;;;;1.50;1.00;;;14.70;98.20;;;;;;4993736;28;20457;-79
2022/06/28 01:56:04;;;;;;;1.50;1.03;;;14.60;98.20;;;;;;4982159;28;20465;-79
2022/06/28 01:58:31;;;;;;;1.50;1.00;;;14.60;98.20;;;;;;5003212;28;20481;-79
2022/06/28 02:00:59;;;;;;;1.50;1.00;;;14.50;98.20;;;;;;4992200;28;20512;-80
2022/06/28 02:03:26;;;;;;;1.50;1.00;;;14.50;98.20;;;;;;4991825;28;20524;-79
2022/06/28 02:05:53;;;;;;;1.50;0.90;;;14.50;98.20;;;;;;4994749;28;20540;-80
2022/06/28 02:08:19;;;;;;;1.50;1.03;;;14.50;98.20;;;;;;4994010;28;20560;-79
2022/06/28 02:10:46;;;;;;;1.50;1.00;;;14.60;98.20;;;;;;4985871;28;20551;-80
2022/06/28 02:13:15;;;;;;;1.50;1.00;;;14.60;98.20;;;;;;5009655;28;20531;-79
2022/06/28 02:15:42;;;;;;;1.50;1.00;;;14.60;98.20;;;;;;4994140;28;20461;-79
2022/06/28 02:18:09;;;;;;;1.50;1.00;;;14.60;98.20;;;;;;4998665;28;20505;-79
2022/06/28 02:20:36;;;;;;;1.50;1.00;;;14.50;98.20;;;;;;5001524;28;20469;-80
2022/06/28 02:23:03;;;;;;;1.50;1.00;;;14.50;98.20;;;;;;4991610;28;20488;-79
2022/06/28 02:25:30;;;;;;;1.50;1.00;;;14.50;98.20;;;;;;4996291;28;20464;-79
2022/06/28 02:27:58;;;;;;;1.50;1.00;;;14.50;98.20;;;;;;4997697;28;20483;-79
2022/06/28 02:30:26;;;;;;;1.50;1.00;;;14.50;98.20;;;;;;4994785;28;20481;-79
2022/06/28 02:32:55;;;;;;;1.50;1.00;;;14.50;98.20;;;;;;5003210;28;20488;-78
2022/06/28 02:40:34;;;;;;;1.53;1.10;;;14.50;98.20;;;;;;4950558;28;20489;-75
2022/06/28 02:43:02;;;;;;;1.50;1.00;;;14.50;98.20;;;;;;4949831;28;20931;-74
2022/06/28 02:45:32;;;;;;;1.50;1.00;;;14.50;98.20;;;;;;4951135;28;20463;-74
2022/06/28 02:47:59;;;;;;;1.70;1.53;;;14.50;98.20;;;;;;4950487;28;20747;-74
2022/06/28 02:50:26;;;;;;;1.57;1.00;;;14.50;98.20;;;;;;4958866;28;20489;-74
2022/06/28 02:52:53;;;;;;;1.53;1.00;;;14.50;98.20;;;;;;4957182;28;20482;-74
2022/06/28 02:55:20;;;;;;;1.50;1.10;;;14.50;98.20;;;;;;4949225;28;21055;-74
2022/06/28 02:57:47;;;;;;;1.50;1.00;;;14.50;98.20;;;;;;4962491;28;20502;-74
2022/06/28 03:00:16;;;;;;;1.50;0.90;;;14.50;98.20;;;;;;4952231;28;20490;-74
2022/06/28 03:02:45;;;;;;;1.50;1.00;;;14.50;98.20;;;;;;4953603;28;20486;-74
2022/06/28 03:05:14;;;;;;;1.50;1.00;;;14.50;98.20;;;;;;4956369;28;20469;-74
2022/06/28 03:07:41;;;;;;;1.50;1.00;;;14.40;98.20;;;;;;4973506;28;20499;-74
2022/06/28 03:10:09;;;;;;;1.50;1.07;;;14.40;98.20;;;;;;4961631;28;20487;-74
2022/06/28 03:12:36;;;;;;;1.50;1.10;;;14.40;98.20;;;;;;4959879;28;20465;-74
2022/06/28 03:15:03;;;;;;;1.50;1.00;;;14.40;98.20;;;;;;4951479;28;20462;-74
2022/06/28 03:17:30;;;;;;;1.50;1.00;;;14.40;98.20;;;;;;4944828;28;20499;-73
2022/06/28 03:19:58;;;;;;;1.50;1.00;;;14.40;98.20;;;;;;4943890;28;20490;-73
2022/06/28 03:22:25;;;;;;;1.50;1.00;;;14.40;98.20;;;;;;4950116;28;20463;-73
2022/06/28 03:24:51;;;;;;;1.50;1.00;;;14.40;98.20;;;;;;4950335;28;20462;-74
2022/06/28 03:27:18;;;;;;;1.50;1.00;;;14.40;98.20;;;;;;4962680;28;20497;-74
2022/06/28 03:29:45;;;;;;;1.50;1.00;;;14.40;98.20;;;;;;4963988;28;20479;-74
2022/06/28 03:32:12;;;;;;;1.50;1.00;;;14.30;98.20;;;;;;4951210;28;20463;-73
2022/06/28 03:34:39;;;;;;;1.50;1.00;;;14.30;98.20;;;;;;4956833;28;20574;-74
2022/06/28 03:37:07;;;;;;;1.50;1.10;;;14.30;98.20;;;;;;4957378;28;20561;-74
2022/06/28 03:39:34;;;;;;;1.50;1.00;;;14.30;98.20;;;;;;4961341;28;20493;-74
2022/06/28 03:42:00;;;;;;;1.50;1.00;;;14.30;98.20;;;;;;4951007;28;20518;-74
2022/06/28 03:44:28;;;;;;;1.50;1.10;;;14.30;98.20;;;;;;4954424;28;20497;-74
2022/06/28 03:46:54;;;;;;;1.50;1.00;;;14.30;98.20;;;;;;4949107;28;20486;-74
2022/06/28 03:49:21;;;;;;;1.50;1.00;;;14.30;98.20;;;;;;4955501;28;20512;-74
2022/06/28 03:51:48;;;;;;;1.50;1.00;;;14.30;98.20;;;;;;4952118;28;20633;-74
2022/06/28 03:54:17;;;;;;;1.50;1.00;;;14.30;98.20;;;;;;4954917;28;20869;-73
2022/06/28 03:56:44;;;;;;;1.50;1.00;;;14.30;98.20;;;;;;4944449;28;20649;-73
2022/06/28 03:59:10;;;;;;;1.50;1.00;;;14.30;98.20;;;;;;4953136;28;20498;-73
2022/06/28 04:01:37;;;;;;;1.50;1.00;;;14.30;98.20;;;;;;4949279;28;20470;-71
2022/06/28 04:04:04;;;;;;;1.50;1.00;;;14.30;98.20;;;;;;4956610;28;20490;-73
2022/06/28 04:06:31;;;;;;;1.50;1.00;;;14.30;98.20;;;;;;4952060;28;20494;-73
2022/06/28 04:08:58;;;;;;;1.50;1.00;;;14.30;98.20;;;;;;4953779;28;20978;-73
2022/06/28 04:11:26;;;;;;;1.50;1.00;;;14.30;98.20;;;;;;4961117;28;20462;-73
2022/06/28 04:13:54;;;;;;;1.53;1.00;;;14.30;98.20;;;;;;4953275;28;20463;-73
2022/06/28 04:16:22;;;;;;;1.50;1.10;;;14.30;98.20;;;;;;4949264;28;20872;-73
2022/06/28 04:18:50;;;;;;;1.50;1.00;;;14.30;98.20;;;;;;4959888;28;20478;-73
2022/06/28 04:21:18;;;;;;;1.50;1.00;;;14.30;98.20;;;;;;4951344;28;20484;-74
2022/06/28 04:23:45;;;;;;;1.50;1.00;;;14.30;98.20;;;;;;4976425;28;20842;-73
2022/06/28 04:26:12;;;;;;;1.60;1.20;;;14.30;98.20;;;;;;4960407;28;20467;-73
2022/06/28 04:28:40;;;;;;;1.50;1.00;;;14.30;98.20;;;;;;4963720;28;20482;-73
2022/06/28 04:31:07;;;;;;;1.50;1.00;;;14.40;98.20;;;;;;4966166;28;20473;-73
2022/06/28 04:33:34;;;;;;;1.50;1.00;;;14.40;98.20;;;;;;4952843;28;20463;-73
2022/06/28 04:36:01;;;;;;;1.50;1.00;;;14.40;98.20;;;;;;4958649;28;20955;-73
2022/06/28 04:38:28;;;;;;;1.50;1.00;;;14.40;98.20;;;;;;4955612;28;20884;-73
2022/06/28 04:40:55;;;;;;;1.50;1.00;;;14.40;98.20;;;;;;4959459;28;20542;-73
2022/06/28 04:43:22;;;;;;;1.50;1.00;;;14.50;98.20;;;;;;4950512;28;20521;-73
2022/06/28 04:45:50;;;;;;;1.50;1.00;;;14.50;98.20;;;;;;4960790;28;20473;-73
2022/06/28 04:48:17;;;;;;;1.50;1.10;;;14.60;98.20;;;;;;4983426;28;20470;-73
2022/06/28 04:50:44;;;;;;;1.57;1.00;;;14.80;98.20;;;;;;4952664;28;20467;-73
2022/06/28 04:53:11;;;;;;;1.50;1.00;;;15.00;98.20;;;;;;4952227;28;20869;-73
2022/06/28 04:55:37;;;;;;;1.53;1.00;;;15.20;98.20;;;;;;4965936;28;20467;-73
2022/06/28 04:58:04;;;;;;;1.50;1.00;;;15.40;98.20;;;;;;4961692;28;20872;-73
2022/06/28 05:00:31;;;;;;;1.50;1.00;;;15.60;98.20;;;;;;4957946;28;20610;-73
2022/06/28 05:02:59;;;;;;;1.50;1.00;;;15.80;98.20;;;;;;4955701;28;20493;-72
2022/06/28 05:05:26;;;;;;;1.50;1.00;;;15.90;98.20;;;;;;4966263;28;20466;-73
2022/06/28 05:07:53;;;;;;;1.50;1.00;;;16.20;98.20;;;;;;4948584;28;20470;-73
2022/06/28 05:10:19;;;;;;;1.50;1.00;;;16.40;98.20;;;;;;4946624;28;20509;-73
2022/06/28 05:12:46;;;;;;;1.50;1.00;;;16.60;98.20;;;;;;4950307;28;20626;-73
2022/06/28 05:15:13;;;;;;;1.57;0.90;;;16.90;98.20;;;;;;4953205;28;20865;-72
2022/06/28 05:17:41;;;;;;;1.50;0.90;;;17.20;98.20;;;;;;4953694;28;20459;-72
2022/06/28 05:20:10;;;;;;;1.57;0.90;;;17.40;98.20;;;;;;4951701;28;20496;-73
2022/06/28 05:22:40;;;;;;;1.53;1.00;;;17.50;98.20;;;;;;4956299;28;20488;-73
2022/06/28 05:25:07;;;;;;;1.50;0.90;;;17.70;98.20;;;;;;4960804;28;21025;-73
2022/06/28 05:27:34;;;;;;;1.53;1.00;;;17.80;98.20;;;;;;4958984;28;20485;-74
2022/06/28 05:30:01;;;;;;;1.53;0.90;;;17.90;98.20;;;;;;4960594;28;20613;-73
2022/06/28 05:32:28;;;;;;;1.50;0.90;;;18.00;98.20;;;;;;4959186;28;20469;-74
2022/06/28 05:34:54;;;;;;;1.60;1.10;;;18.20;98.20;;;;;;4963745;28;20461;-73
2022/06/28 05:37:23;;;;;;;1.50;0.90;;;18.40;98.20;;;;;;4958552;28;21037;-73
2022/06/28 05:39:49;;;;;;;1.50;0.90;;;18.70;98.20;;;;;;4957478;28;20714;-73
2022/06/28 05:42:17;;;;;;;1.50;0.90;;;18.80;98.20;;;;;;4959938;28;20545;-73
2022/06/28 05:44:44;;;;;;;1.50;0.90;;;18.90;98.20;;;;;;4953336;28;20518;-74
2022/06/28 05:47:11;;;;;;;1.50;0.90;;;19.00;98.20;;;;;;4945824;28;20500;-73
2022/06/28 05:49:38;;;;;;;1.50;1.00;;;19.20;98.20;;;;;;4945794;28;20486;-73
2022/06/28 05:52:06;;;;;;;1.50;0.93;;;19.40;98.20;;;;;;4949563;28;20981;-74
2022/06/28 05:54:34;;;;;;;1.50;1.00;;;19.40;97.10;;;;;;4949971;28;20922;-74
2022/06/28 05:57:01;;;;;;;1.50;0.90;;;19.40;98.20;;;;;;4952480;28;20517;-73
2022/06/28 05:59:29;;;;;;;1.50;0.97;;;19.30;98.20;;;;;;4962930;28;20509;-74
2022/06/28 06:01:56;;;;;;;1.50;0.90;;;19.20;98.20;;;;;;4950896;28;20478;-75
2022/06/28 06:04:25;;;;;;;1.50;1.00;;;19.10;98.20;;;;;;4961986;28;20497;-74
2022/06/28 06:06:51;;;;;;;1.50;1.00;;;19.20;98.20;;;;;;4961416;28;20467;-75
2022/06/28 06:09:18;;;;;;;1.50;0.90;;;19.40;98.20;;;;;;4951838;28;20487;-74
2022/06/28 06:11:47;;;;;;;1.50;0.90;;;19.40;98.20;;;;;;4963649;28;21031;-74
2022/06/28 06:14:14;;;;;;;1.70;1.20;;;19.50;98.20;;;;;;4977324;28;20470;-74
2022/06/28 06:16:41;;;;;;;1.50;0.90;;;19.70;98.20;;;;;;4960206;28;20552;-74
2022/06/28 06:19:08;;;;;;;1.50;0.90;;;19.70;98.20;;;;;;4959785;28;20490;-75
2022/06/28 06:21:35;;;;;;;1.60;1.00;;;19.90;98.20;;;;;;4952646;28;20467;-75
2022/06/28 06:24:03;;;;;;;1.50;0.90;;;20.10;98.20;;;;;;4954092;28;20570;-76
2022/06/28 06:26:31;;;;;;;1.50;0.90;;;20.40;98.20;;;;;;4944749;28;20520;-75
2022/06/28 06:28:59;;;;;;;1.50;0.90;;;20.70;96.90;;;;;;4957372;28;20486;-75
2022/06/28 06:31:26;;;;;;;1.50;0.90;;;20.90;95.50;;;;;;4957324;28;20967;-75
2022/06/28 06:33:52;;;;;;;1.50;1.00;;;21.00;96.40;;;;;;4950338;28;20470;-75
2022/06/28 06:36:19;;;;;;;1.50;0.90;;;21.10;95.50;;;;;;4951950;28;20463;-75
2022/06/28 06:38:46;;;;;;;1.50;0.90;;;21.20;95.30;;;;;;4949974;28;20545;-76
2022/06/28 06:41:13;;;;;;;1.57;1.00;;;21.30;95.10;;;;;;4948985;28;21167;-75
2022/06/28 06:43:40;;;;;;;1.50;0.90;;;21.30;94.20;;;;;;4950743;28;20498;-76
2022/06/28 06:46:08;;;;;;;1.50;0.90;;;21.10;93.80;;;;;;4943811;28;20478;-76
2022/06/28 06:48:35;;;;;;;1.50;0.90;;;21.20;95.30;;;;;;4964783;28;20496;-77
2022/06/28 06:51:02;;;;;;;1.50;0.90;;;21.50;94.30;;;;;;4965301;28;20465;-78
2022/06/28 06:53:29;;;;;;;1.50;0.87;;;21.80;93.20;;;;;;4948934;28;20514;-77
2022/06/28 06:55:56;;;;;;;1.50;0.90;;;22.10;92.60;;;;;;4942661;28;20596;-77
2022/06/28 06:58:23;;;;;;;1.50;0.90;;;22.30;90.30;;;;;;4964836;28;20490;-76
2022/06/28 07:00:50;;;;;;;6.43;2.80;;;22.40;91.80;;;;;;4952120;28;20963;-77
2022/06/28 07:03:19;;;;;;;1.50;0.93;;;22.60;88.90;;;;;;4950042;28;20850;-76
2022/06/28 07:05:45;;;;;;;1.50;0.90;;;22.90;89.00;;;;;;4950628;28;20624;-75
2022/06/28 07:08:12;;;;;;;1.50;0.90;;;23.10;87.90;;;;;;4950307;28;20493;-75
2022/06/28 07:10:39;;;;;;;1.50;0.90;;;23.10;88.20;;;;;;4953794;28;20463;-76
2022/06/28 07:13:06;;;;;;;1.50;0.90;;;23.10;88.30;;;;;;4945415;28;20487;-76
2022/06/28 07:15:33;;;;;;;1.50;0.90;;;23.40;85.80;;;;;;4955801;28;20466;-78
2022/06/28 07:18:00;;;;;;;1.60;1.00;;;23.50;86.50;;;;;;4951732;28;20467;-75
2022/06/28 07:20:28;;;;;;;1.50;0.90;;;23.80;85.50;;;;;;4950155;28;20466;-76
2022/06/28 07:22:54;;;;;;;1.50;0.90;;;24.00;84.20;;;;;;4949484;28;20482;-76
2022/06/28 07:25:21;;;;;;;1.50;0.90;;;24.20;82.00;;;;;;4950416;28;20498;-76
2022/06/28 07:27:48;;;;;;;1.50;0.90;;;24.30;82.20;;;;;;4950277;28;20493;-75
2022/06/28 07:30:15;;;;;;;1.50;0.90;;;24.40;82.60;;;;;;4957443;28;20493;-76
2022/06/28 07:32:42;;;;;;;1.50;0.90;;;24.50;83.10;;;;;;4943804;28;20501;-76
2022/06/28 07:35:09;;;;;;;1.70;1.33;;;24.70;82.80;;;;;;4947307;28;21499;-76
2022/06/28 07:37:37;;;;;;;1.50;0.90;;;24.90;81.10;;;;;;4955014;28;20498;-75
2022/06/28 07:40:06;;;;;;;1.50;0.90;;;25.00;82.40;;;;;;4970376;28;20498;-75
2022/06/28 07:42:33;;;;;;;1.50;0.90;;;25.00;82.40;;;;;;4959071;28;20462;-77
2022/06/28 07:45:00;;;;;;;1.50;0.90;;;25.10;81.30;;;;;;4954094;28;21070;-75
2022/06/28 07:47:27;;;;;;;1.50;0.80;;;24.90;82.00;;;;;;4956407;28;20505;-76
2022/06/28 07:52:39;;;;;;;1.50;0.80;;;24.70;81.20;;;;;;4957227;28;20482;-76
2022/06/28 07:55:07;;;;;;;1.50;0.90;;;24.70;83.30;;;;;;4958226;28;20465;-76
2022/06/28 07:57:34;;;;;;;1.50;0.90;;;24.90;80.20;;;;;;4962934;28;20489;-78
2022/06/28 08:00:02;;;;;;;1.50;0.90;;;25.10;80.00;;;;;;4960542;28;20568;-76
2022/06/28 08:02:29;;;;;;;1.50;1.00;;;25.40;80.90;;;;;;4956464;28;20528;-76
2022/06/28 08:04:56;;;;;;;1.50;0.90;;;25.60;78.70;;;;;;4954983;28;20490;-76
2022/06/28 08:07:23;;;;;;;1.50;0.90;;;25.40;78.40;;;;;;4953318;28;20467;-76
2022/06/28 08:09:51;;;;;;;1.50;0.80;;;25.30;78.90;;;;;;4960643;28;20517;-76
2022/06/28 08:12:18;;;;;;;1.50;0.90;;;25.40;82.00;;;;;;4971315;28;20500;-76
2022/06/28 08:14:45;;;;;;;1.50;0.80;;;25.60;78.40;;;;;;4975190;28;20461;-75
2022/06/28 08:17:11;;;;;;;1.60;1.20;;;25.80;75.70;;;;;;4961040;28;20543;-75
2022/06/28 08:19:38;;;;;;;1.50;0.90;;;25.80;75.50;;;;;;4961387;28;20563;-76
2022/06/28 08:22:05;;;;;;;1.50;0.80;;;26.00;75.70;;;;;;4962127;28;20548;-76
2022/06/28 08:24:32;;;;;;;1.50;0.90;;;25.80;73.50;;;;;;4957354;28;20498;-75
2022/06/28 08:27:00;;;;;;;1.43;0.80;;;25.80;75.80;;;;;;4953444;28;20485;-76
2022/06/28 08:29:29;;;;;;;1.50;0.90;;;25.90;75.50;;;;;;4964957;28;20581;-78
2022/06/28 08:31:56;;;;;;;1.50;0.80;;;26.10;74.10;;;;;;4969375;28;20516;-76
2022/06/28 08:34:23;;;;;;;1.50;0.90;;;26.30;73.70;;;;;;4964222;28;20462;-76
2022/06/28 08:36:50;;;;;;;1.50;0.80;;;26.50;74.00;;;;;;4953512;28;20496;-77
2022/06/28 08:39:16;;;;;;;1.50;0.90;;;26.70;72.10;;;;;;4952643;28;20613;-77
2022/06/28 08:44:13;;;;;;;1.47;0.80;;;27.00;73.70;;;;;;4957551;28;20494;-75
2022/06/28 08:46:41;;;;;;;1.50;0.80;;;27.20;72.60;;;;;;4945138;28;20477;-75
2022/06/28 08:49:23;;;;;;;1.50;0.80;;;27.30;70.40;;;;;;4951645;28;20470;-76
2022/06/28 08:51:51;;;;;;;1.93;1.73;;;27.40;69.10;;;;;;4950376;28;20490;-77
2022/06/28 08:54:20;;;;;;;1.50;0.80;;;27.40;70.40;;;;;;4952836;28;21007;-76
2022/06/28 08:56:47;;;;;;;1.50;0.90;;;27.50;70.10;;;;;;4952160;28;20473;-76
2022/06/28 08:59:16;;;;;;;1.50;0.90;;;27.60;69.30;;;;;;4951912;28;20466;-76
2022/06/28 09:01:42;;;;;;;1.50;0.80;;;27.70;68.20;;;;;;4953754;28;20472;-76
2022/06/28 09:04:11;;;;;;;1.47;0.80;;;27.80;68.60;;;;;;4951453;28;21023;-76
2022/06/28 09:06:38;;;;;;;1.50;0.90;;;27.90;68.20;;;;;;4951347;28;20946;-76
2022/06/28 09:09:05;;;;;;;1.43;0.80;;;28.00;68.80;;;;;;4953186;28;20470;-75
2022/06/28 09:11:37;;;;;;;1.47;0.80;;;27.90;68.70;;;;;;4947439;28;20485;-76
2022/06/28 09:14:19;;;;;;;1.50;0.80;;;28.10;70.40;;;;;;4960971;28;20486;-76
2022/06/28 09:16:47;;;;;;;1.47;0.80;;;28.20;68.50;;;;;;4949927;28;20476;-76
2022/06/28 09:19:14;;;;;;;1.47;0.80;;;28.40;69.80;;;;;;4951347;29;20465;-76
2022/06/28 09:21:45;;;;;;;1.43;0.80;;;28.50;67.60;;;;;;4948336;28;20497;-76
2022/06/28 09:24:25;;;;;;;1.47;0.80;;;28.50;66.60;;;;;;4960958;28;20549;-77
2022/06/28 09:26:54;;;;;;;1.47;0.87;;;28.40;68.10;;;;;;4952536;28;20481;-77
2022/06/28 09:29:21;;;;;;;1.47;0.90;;;28.30;65.90;;;;;;4958455;28;20521;-77
2022/06/28 09:31:49;;;;;;;1.50;0.80;;;28.40;67.50;;;;;;4949934;28;20462;-76
2022/06/28 09:34:16;;;;;;;1.50;0.80;;;28.60;67.60;;;;;;4952626;28;20462;-77
2022/06/28 09:36:55;;;;;;;1.50;0.90;;;28.80;65.60;;;;;;4949714;28;21110;-76
2022/06/28 09:39:23;;;;;;;1.50;0.80;;;28.90;64.60;;;;;;4958628;28;20473;-77
2022/06/28 09:41:52;;;;;;;1.47;0.80;;;29.00;65.50;;;;;;4951472;28;20541;-77
2022/06/28 09:44:25;;;;;;;1.50;0.80;;;29.10;66.00;;;;;;4951653;28;20466;-76
2022/06/28 09:46:54;;;;;;;1.43;0.80;;;29.20;65.40;;;;;;4950894;28;20493;-76
2022/06/28 09:49:28;;;;;;;1.40;0.80;;;29.40;64.30;;;;;;4958692;28;20553;-77
2022/06/28 09:51:59;;;;;;;1.50;0.83;;;29.50;63.90;;;;;;4948528;28;20469;-75
2022/06/28 09:54:27;;;;;;;1.50;0.80;;;29.60;61.50;;;;;;4954218;28;20469;-79
2022/06/28 09:56:56;;;;;;;1.47;0.80;;;29.80;62.70;;;;;;4949734;28;20497;-76
2022/06/28 09:59:24;;;;;;;1.43;0.80;;;29.90;62.90;;;;;;4960628;28;20467;-77
2022/06/28 10:01:55;;;;;;;1.50;0.90;;;30.00;62.20;;;;;;4952829;28;20580;-78
2022/06/28 10:04:22;;;;;;;1.50;0.80;;;30.10;61.70;;;;;;4962218;28;20466;-77
2022/06/28 10:06:50;;;;;;;1.43;0.90;;;30.00;62.00;;;;;;4950718;28;20466;-78
2022/06/28 10:09:20;;;;;;;1.47;0.80;;;29.90;62.90;;;;;;4955329;28;20970;-78
2022/06/28 10:17:42;;;;;;;1.47;0.90;;;29.90;62.30;;;;;;4922257;28;20487;-78
2022/06/28 10:20:12;;;;;;;1.43;0.80;;;30.20;64.80;;;;;;4930467;29;20602;-75
2022/06/28 10:22:39;;;;;;;1.43;0.80;;;30.50;65.40;;;;;;4939085;28;20871;-76
2022/06/28 10:25:15;;;;;;;1.47;0.80;;;30.40;62.80;;;;;;4951458;28;20520;-75
2022/06/28 10:27:47;;;;;;;1.47;0.80;;;30.10;62.70;;;;;;4948264;28;20507;-77
2022/06/28 10:30:29;;;;;;;1.43;0.80;;;30.00;64.50;;;;;;4950141;28;20470;-76
2022/06/28 10:33:05;;;;;;;1.50;1.00;;;30.00;63.10;;;;;;4948416;28;20486;-77
2022/06/28 10:36:12;;;;;;;1.40;0.80;;;29.50;64.00;;;;;;4951635;28;20470;-76
2022/06/28 10:38:39;;;;;;;1.40;0.90;;;29.40;63.90;;;;;;4947748;29;20519;-76
2022/06/28 10:41:14;;;;;;;1.40;0.80;;;29.60;65.30;;;;;;4948152;28;20478;-77
2022/06/28 10:43:47;;;;;;;1.50;0.90;;;29.70;64.80;;;;;;4950215;28;20901;-77
2022/06/28 10:46:14;;;;;;;1.47;0.80;;;30.20;63.50;;;;;;4943117;28;20237;-77
2022/06/28 10:49:05;;;;;;;1.43;0.80;;;30.40;62.70;;;;;;4959289;28;20209;-77
2022/06/28 10:51:32;;;;;;;1.43;0.80;;;30.60;63.60;;;;;;4944512;28;20481;-77
2022/06/28 10:54:01;;;;;;;1.43;0.80;;;30.80;63.10;;;;;;4959082;28;20912;-78
2022/06/28 10:56:29;;;;;;;1.47;0.80;;;31.20;61.70;;;;;;4945484;28;20769;-77
2022/06/28 10:58:56;;;;;;;1.60;1.20;;;31.00;61.80;;;;;;4958347;28;20211;-77
2022/06/28 11:01:57;;;;;;;1.43;0.80;;;30.80;63.20;;;;;;4942632;28;20325;-77
2022/06/28 11:04:30;;;;;;;1.43;0.80;;;29.90;62.90;;;;;;4956008;28;20221;-77
2022/06/28 11:07:01;;;;;;;1.50;0.80;;;29.30;63.60;;;;;;4949771;28;20263;-77
2022/06/28 11:10:04;;;;;;;1.47;0.80;;;29.10;66.10;;;;;;4944270;29;21078;-77
2022/06/28 11:12:39;;;;;;;1.47;0.80;;;29.10;65.00;;;;;;4947198;28;20493;-77
2022/06/28 11:15:08;;;;;;;1.43;0.80;;;28.70;64.20;;;;;;4943806;28;20473;-77
2022/06/28 11:17:37;;;;;;;1.43;0.80;;;28.50;64.00;;;;;;4945463;28;20518;-78
2022/06/28 11:20:08;;;;;;;1.40;0.80;;;28.40;63.50;;;;;;4943682;28;20470;-78
2022/06/28 11:22:42;;;;;;;1.47;0.80;;;27.90;64.40;;;;;;4950193;28;20500;-79
2022/06/28 11:25:10;;;;;;;1.47;0.80;;;27.80;65.60;;;;;;4939540;28;20991;-78
2022/06/28 11:27:44;;;;;;;1.50;0.90;;;28.00;65.60;;;;;;4943319;28;20475;-78
2022/06/28 11:30:11;;;;;;;1.50;0.80;;;28.10;65.50;;;;;;4939526;28;20478;-78
2022/06/28 11:32:40;;;;;;;1.50;0.80;;;28.30;64.70;;;;;;4936897;28;20510;-79
2022/06/28 11:35:09;;;;;;;1.43;0.90;;;28.30;63.30;;;;;;4950334;28;20473;-79
2022/06/28 11:37:48;;;;;;;1.47;0.90;;;28.50;63.40;;;;;;4948950;28;20469;-78
2022/06/28 11:40:16;;;;;;;1.47;0.80;;;28.50;63.20;;;;;;4949436;28;20504;-78
2022/06/28 11:42:43;;;;;;;1.40;0.80;;;29.00;61.80;;;;;;4953731;28;20517;-78
2022/06/28 11:45:12;;;;;;;1.50;0.90;;;29.30;61.10;;;;;;4948269;28;20494;-78
2022/06/28 11:47:42;;;;;;;1.43;0.80;;;29.50;62.00;;;;;;4946891;28;20473;-78
2022/06/28 11:50:13;;;;;;;1.47;0.80;;;29.40;59.00;;;;;;4947386;28;20477;-78
2022/06/28 11:52:49;;;;;;;1.47;0.90;;;28.90;59.90;;;;;;4950736;28;20535;-78
2022/06/28 11:55:16;;;;;;;1.43;0.87;;;28.20;61.10;;;;;;4948874;28;20971;-78
2022/06/28 11:57:44;;;;;;;1.47;0.80;;;27.90;63.40;;;;;;4945624;28;20469;-77
2022/06/28 12:00:13;;;;;;;1.60;1.13;;;27.70;63.70;;;;;;4946872;28;20522;-77
2022/06/28 12:02:45;;;;;;;1.40;0.90;;;27.80;64.10;;;;;;4946381;28;20489;-76
2022/06/28 12:05:14;;;;;;;1.47;0.80;;;28.00;63.50;;;;;;4943142;29;20974;-78
2022/06/28 12:07:43;;;;;;;1.43;0.80;;;28.30;61.00;;;;;;4946943;28;20469;-78
2022/06/28 12:10:24;;;;;;;1.43;0.80;;;28.50;60.40;;;;;;4944852;28;20466;-78
2022/06/28 12:12:51;;;;;;;1.50;0.80;;;28.60;60.60;;;;;;4951281;28;20488;-79
2022/06/28 12:15:28;;;;;;;1.43;0.80;;;28.80;61.90;;;;;;4952005;28;20622;-78
2022/06/28 12:17:59;;;;;;;1.43;0.80;;;28.90;59.20;;;;;;4949572;28;21001;-79
2022/06/28 12:20:28;;;;;;;1.47;0.80;;;29.00;59.80;;;;;;4946906;28;20836;-78
2022/06/28 12:22:59;;;;;;;1.43;0.80;;;29.30;59.60;;;;;;4946561;28;20521;-79
2022/06/28 12:25:26;;;;;;;1.40;0.80;;;29.70;58.40;;;;;;4952220;28;21069;-78
2022/06/28 12:27:53;;;;;;;1.47;0.80;;;29.70;57.30;;;;;;4954697;28;20495;-79
2022/06/28 12:30:21;;;;;;;1.43;0.80;;;29.30;57.50;;;;;;4949426;28;20923;-79
2022/06/28 12:32:48;;;;;;;1.43;0.80;;;28.90;58.20;;;;;;4946334;28;20566;-79
2022/06/28 12:35:15;;;;;;;1.43;0.80;;;28.40;59.00;;;;;;4953556;28;20934;-79
2022/06/28 12:37:44;;;;;;;1.43;0.80;;;28.10;59.90;;;;;;4958066;28;21114;-79
2022/06/28 12:40:12;;;;;;;1.50;0.90;;;27.80;60.40;;;;;;4953934;28;20482;-79
2022/06/28 12:42:39;;;;;;;1.47;0.80;;;27.70;60.40;;;;;;4954533;28;20481;-78
2022/06/28 12:45:07;;;;;;;1.43;0.80;;;28.00;59.00;;;;;;4950411;28;20470;-79
2022/06/28 12:47:36;;;;;;;1.47;0.80;;;28.00;59.20;;;;;;4951607;28;20477;-79
2022/06/28 12:50:05;;;;;;;1.50;0.80;;;28.00;60.60;;;;;;4952208;28;21204;-78
2022/06/28 12:52:33;;;;;;;1.47;0.90;;;28.10;60.40;;;;;;4956131;28;20599;-79
2022/06/28 12:55:02;;;;;;;1.50;1.10;;;28.20;60.20;;;;;;4955125;28;20472;-78
2022/06/28 12:57:29;;;;;;;1.43;0.80;;;28.30;59.20;;;;;;4950371;28;20839;-79
2022/06/28 12:59:56;;;;;;;1.47;0.80;;;28.60;60.20;;;;;;4947447;28;20822;-78
2022/06/28 13:02:23;;;;;;;1.47;0.80;;;29.00;60.50;;;;;;4951217;28;21004;-77
2022/06/28 13:04:50;;;;;;;1.43;0.80;;;29.40;59.50;;;;;;4949671;28;20999;-78
2022/06/28 13:07:19;;;;;;;1.40;0.80;;;29.60;58.00;;;;;;4945839;28;20482;-78
2022/06/28 13:09:47;;;;;;;1.43;0.80;;;29.60;59.40;;;;;;4950958;28;20466;-78
2022/06/28 13:12:15;;;;;;;1.40;0.80;;;29.80;57.20;;;;;;4946264;28;20560;-78
2022/06/28 13:14:42;;;;;;;1.50;0.80;;;29.90;57.10;;;;;;4949549;29;20597;-78
2022/06/28 13:17:09;;;;;;;1.47;0.80;;;29.60;57.40;;;;;;4950522;28;20517;-78